Portada
METAR-TAF:

METAR-TAF

Aeroports :

Curaçao, Antilles Neerlandeses

latitud: 12-12N, longitud: 068-58W, altitud: 9 m

Observació

L'informe es va fer fa 16 minuts, a les 13:00 UTC
Vent 12 kt del Est
Temperatura 29°C
Humitat 74%
Pressió 1012 hPa
Visibilitat 10 km o més
Núvols disperses a una alçada de 2000 ft

METAR: TNCC 081300Z 10012KT 9999 SCT020 29/24 Q1012 NOSIG

Hora: 09:16 (13:16 UTC)

Pronòstic

L'informe es va fer fa 2 hores i 1 minuts, a les 11:15 UTC
Pronòstic vàlid del 08 a les 12 UTC al 09 a les 12 UTC
Vent 11 kt del Est/Sud-Est
Visibilitat 10 km o més
Escasses núvols a una alçada de 1800 ft

TAF: TNCC 081115Z 0812/0912 11011KT 9999 FEW018

Observacions i pronòstics meteorològics de més de 4000 aeroports (METAR i TAF).

Les estacions disponibles són els punts grocs i vermells al mapa.

Posi el ratolí al punt desitjat per veure el nom de l'estació.

Feu clic per veure les observacions i els pronòstics meteorològics.

Per canviar el mapa: feu clic els botons verds amb una creu de color negre per apropar; al botó verd amb un guió per allunyar la imatge; o en les fletxes verdes per a mapes adjacents.


METAR-TAF: